Haines Airport
PAHN : now visible

Airfield :











YOU CAN JOIN US ON...

 
LOGIN :

Register | Disclaimer

   EN    FR    IT 

 









Legend :    VFR   Marginal VFR   IFR   Intensive IFR   Very Intensive IFR
Visi :
Ceiling :
>= 8 km
>= 3000ft
5 to 8 km
1000 to 3000 ft
1500m to 5 km
500 to 1000 ft
800 to 1500m
200 to 500 ft
< 800m
< 200 ft
Symbols :   Thunderstorms  Fog  Heavy snow  Heavy precipitations  Wind > 20 kt







- Airport Elevation : 15 ft
- IATA code : HNS


PAHN - Haines

CURRENT METAR :
  • 211023Z AUTO 09013G25KT 9SM -RA SCT012 SCT038 OVC085 13/12 A2934 RMK AO2 P0002 T01330117 TSNO

EXPIRED METARs :
  • 210954Z AUTO 10011G22KT 10SM -RA OVC010 13/12 A2934 RMK AO2 SLP938 P0007 T01330117 TSNO
  • 210930Z AUTO 09013G23KT 070V130 7SM -RA BKN009 OVC014 13/12 A2934 RMK AO2 P0004 T01330122 TSNO
  • 210854Z AUTO 08012G23KT 5SM -RA BR BKN010 OVC015 13/12 A2934 RMK AO2 PK WND 08029/0812 SLP936 P0010 60018 T01330117 401390117 53003 TSNO
  • 210842Z AUTO 09012G22KT 050V120 5SM -RA BR BKN010 OVC015 13/12 A2934 RMK AO2 PK WND 08029/0812 P0008 T01330117 TSNO
  • 210835Z AUTO 09011G26KT 5SM -RA BR BKN008 OVC014 13/12 A2934 RMK AO2 PK WND 08029/0812 P0006 T01330122 TSNO
  • 210804Z AUTO 08014G26KT 6SM -RA BR BKN012 BKN032 OVC080 14/12 A2934 RMK AO2 PK WND 08026/0756 P0001 T01390122 TSNO
  • 210754Z AUTO 09014G21KT 6SM -RA BR SCT012 BKN047 OVC075 14/12 A2933 RMK AO2 PK WND 05028/0714 SLP935 P0003 T01390122 TSNO

TAF PAHN
Valid from the 21 at 06:00 until the 22 at 06:00 UTC


210533Z 2106/2206 08015G28KT 6SM -RA BR BKN008 OVC012
TEMPO 2106/2110 4SM RA BR
FM211500 11011G18KT P6SM -SHRA BKN012 OVC045
FM212100 10011G18KT P6SM VCSH BKN015 OVC060 AMD LTD TO CLD VIS AND WIND
No reported NOTAMs for that airfield.



MET'MAP, your aeronautical weather chart ! - Copyright ORBIFLY December 2007 - Disclaimer

ORBIFLY MET'MAP TEAM :

Programming & Development : Alexandra Zaïnal
Concept & Development : Baudouin d'Aumeries
Co-Development & Prog : Marc-Olivier Méhu
Technical & hardware support : Manuel Goepfert

Contact : metmap@orbifly.com




SOURCES & CREDITS :

   NOAA       Earth
Advisory